sensor_id;sensor_type;location;lat;lon;timestamp;pressure;altitude;pressure_sealevel;temperature;humidity
25722;BME280;13578;53.450;15.496;2023-04-21T00:01:04;100361.75;;;10.13;100.00
25722;BME280;13578;53.450;15.496;2023-04-21T00:04:07;100347.69;;;10.18;100.00
25722;BME280;13578;53.450;15.496;2023-04-21T00:07:09;100353.78;;;10.22;100.00
25722;BME280;13578;53.450;15.496;2023-04-21T00:10:10;100344.91;;;10.07;100.00
25722;BME280;13578;53.450;15.496;2023-04-21T00:13:11;100348.75;;;10.04;100.00
25722;BME280;13578;53.450;15.496;2023-04-21T00:16:12;100348.63;;;9.94;100.00
25722;BME280;13578;53.450;15.496;2023-04-21T00:19:12;100354.44;;;9.78;100.00
25722;BME280;13578;53.450;15.496;2023-04-21T00:22:14;100346.38;;;9.88;100.00
25722;BME280;13578;53.450;15.496;2023-04-21T00:25:16;100355.44;;;9.77;100.00
25722;BME280;13578;53.450;15.496;2023-04-21T00:28:16;100350.09;;;9.76;100.00
25722;BME280;13578;53.450;15.496;2023-04-21T00:31:17;100353.97;;;9.84;100.00
25722;BME280;13578;53.450;15.496;2023-04-21T00:34:17;100344.47;;;9.77;100.00
25722;BME280;13578;53.450;15.496;2023-04-21T00:37:18;100334.97;;;9.70;100.00
25722;BME280;13578;53.450;15.496;2023-04-21T00:40:19;100332.25;;;9.70;100.00
25722;BME280;13578;53.450;15.496;2023-04-21T00:43:19;100323.38;;;9.66;100.00
25722;BME280;13578;53.450;15.496;2023-04-21T00:46:20;100330.13;;;9.74;100.00
25722;BME280;13578;53.450;15.496;2023-04-21T00:49:21;100326.63;;;9.72;100.00
25722;BME280;13578;53.450;15.496;2023-04-21T00:52:24;100328.38;;;9.73;100.00
25722;BME280;13578;53.450;15.496;2023-04-21T00:55:25;100331.81;;;9.63;100.00
25722;BME280;13578;53.450;15.496;2023-04-21T00:58:26;100333.31;;;9.56;100.00
25722;BME280;13578;53.450;15.496;2023-04-21T01:01:28;100339.72;;;9.44;100.00
25722;BME280;13578;53.450;15.496;2023-04-21T01:04:29;100348.72;;;9.46;100.00
25722;BME280;13578;53.450;15.496;2023-04-21T01:07:34;100345.00;;;9.47;100.00
25722;BME280;13578;53.450;15.496;2023-04-21T01:10:35;100344.16;;;9.33;100.00
25722;BME280;13578;53.450;15.496;2023-04-21T01:13:36;100351.38;;;9.34;100.00
25722;BME280;13578;53.450;15.496;2023-04-21T01:16:37;100350.38;;;9.24;100.00
25722;BME280;13578;53.450;15.496;2023-04-21T01:19:40;100340.97;;;9.15;100.00
25722;BME280;13578;53.450;15.496;2023-04-21T01:22:41;100360.25;;;9.14;100.00
25722;BME280;13578;53.450;15.496;2023-04-21T01:25:43;100349.09;;;9.17;100.00
25722;BME280;13578;53.450;15.496;2023-04-21T01:28:44;100342.41;;;9.08;100.00
25722;BME280;13578;53.450;15.496;2023-04-21T01:31:46;100354.47;;;9.05;100.00
25722;BME280;13578;53.450;15.496;2023-04-21T01:34:48;100353.31;;;9.21;100.00
25722;BME280;13578;53.450;15.496;2023-04-21T01:37:49;100352.03;;;9.14;100.00
25722;BME280;13578;53.450;15.496;2023-04-21T01:40:51;100343.41;;;9.07;100.00
25722;BME280;13578;53.450;15.496;2023-04-21T01:43:53;100356.44;;;9.03;100.00
25722;BME280;13578;53.450;15.496;2023-04-21T01:46:53;100351.69;;;8.94;100.00
25722;BME280;13578;53.450;15.496;2023-04-21T01:49:54;100352.66;;;8.93;100.00
25722;BME280;13578;53.450;15.496;2023-04-21T01:52:55;100335.63;;;8.77;100.00
25722;BME280;13578;53.450;15.496;2023-04-21T01:55:55;100343.63;;;8.80;100.00
25722;BME280;13578;53.450;15.496;2023-04-21T01:58:56;100346.38;;;8.67;100.00
25722;BME280;13578;53.450;15.496;2023-04-21T02:01:57;100351.91;;;8.78;100.00
25722;BME280;13578;53.450;15.496;2023-04-21T02:04:57;100338.75;;;8.59;100.00
25722;BME280;13578;53.450;15.496;2023-04-21T02:07:58;100349.44;;;8.62;100.00
25722;BME280;13578;53.450;15.496;2023-04-21T02:11:00;100338.75;;;8.59;100.00
25722;BME280;13578;53.450;15.496;2023-04-21T02:14:01;100335.44;;;8.54;100.00
25722;BME280;13578;53.450;15.496;2023-04-21T02:17:02;100336.22;;;8.56;100.00
25722;BME280;13578;53.450;15.496;2023-04-21T02:20:03;100332.59;;;8.42;100.00
25722;BME280;13578;53.450;15.496;2023-04-21T02:23:04;100346.84;;;8.48;100.00
25722;BME280;13578;53.450;15.496;2023-04-21T02:26:05;100331.84;;;8.40;100.00
25722;BME280;13578;53.450;15.496;2023-04-21T02:29:06;100339.19;;;8.40;100.00
25722;BME280;13578;53.450;15.496;2023-04-21T02:32:06;100351.19;;;8.37;100.00
25722;BME280;13578;53.450;15.496;2023-04-21T02:35:08;100339.97;;;8.29;100.00
25722;BME280;13578;53.450;15.496;2023-04-21T02:38:08;100353.19;;;8.35;100.00
25722;BME280;13578;53.450;15.496;2023-04-21T02:41:09;100345.31;;;8.31;100.00
25722;BME280;13578;53.450;15.496;2023-04-21T02:44:10;100335.78;;;8.23;100.00
25722;BME280;13578;53.450;15.496;2023-04-21T02:47:10;100347.38;;;8.27;100.00
25722;BME280;13578;53.450;15.496;2023-04-21T02:50:12;100361.06;;;8.14;100.00
25722;BME280;13578;53.450;15.496;2023-04-21T02:53:13;100351.09;;;8.13;100.00
25722;BME280;13578;53.450;15.496;2023-04-21T02:56:13;100349.91;;;8.04;100.00
25722;BME280;13578;53.450;15.496;2023-04-21T02:59:14;100339.06;;;8.16;100.00
25722;BME280;13578;53.450;15.496;2023-04-21T03:02:15;100339.81;;;8.05;100.00
25722;BME280;13578;53.450;15.496;2023-04-21T03:05:16;100343.00;;;7.99;100.00
25722;BME280;13578;53.450;15.496;2023-04-21T03:08:16;100334.72;;;8.00;100.00
25722;BME280;13578;53.450;15.496;2023-04-21T03:11:17;100336.88;;;7.95;100.00
25722;BME280;13578;53.450;15.496;2023-04-21T03:14:18;100332.97;;;7.99;100.00
25722;BME280;13578;53.450;15.496;2023-04-21T03:17:18;100334.06;;;7.97;100.00
25722;BME280;13578;53.450;15.496;2023-04-21T03:20:19;100323.31;;;7.81;100.00
25722;BME280;13578;53.450;15.496;2023-04-21T03:23:20;100339.72;;;7.81;100.00
25722;BME280;13578;53.450;15.496;2023-04-21T03:26:21;100340.59;;;7.81;100.00
25722;BME280;13578;53.450;15.496;2023-04-21T03:29:22;100339.38;;;7.85;100.00
25722;BME280;13578;53.450;15.496;2023-04-21T03:32:23;100330.34;;;7.85;100.00
25722;BME280;13578;53.450;15.496;2023-04-21T03:35:24;100340.38;;;7.84;100.00
25722;BME280;13578;53.450;15.496;2023-04-21T03:38:27;100336.19;;;7.78;100.00
25722;BME280;13578;53.450;15.496;2023-04-21T03:41:27;100340.13;;;7.74;100.00
25722;BME280;13578;53.450;15.496;2023-04-21T03:44:28;100340.69;;;7.79;100.00
25722;BME280;13578;53.450;15.496;2023-04-21T03:47:29;100336.84;;;7.82;100.00
25722;BME280;13578;53.450;15.496;2023-04-21T03:50:29;100344.19;;;7.82;100.00
25722;BME280;13578;53.450;15.496;2023-04-21T03:53:30;100342.00;;;7.74;100.00
25722;BME280;13578;53.450;15.496;2023-04-21T03:56:30;100346.47;;;7.75;100.00
25722;BME280;13578;53.450;15.496;2023-04-21T03:59:31;100343.63;;;7.63;100.00
25722;BME280;13578;53.450;15.496;2023-04-21T04:02:32;100335.75;;;7.59;100.00
25722;BME280;13578;53.450;15.496;2023-04-21T04:05:34;100336.44;;;7.75;100.00
25722;BME280;13578;53.450;15.496;2023-04-21T04:08:35;100340.81;;;7.78;100.00
25722;BME280;13578;53.450;15.496;2023-04-21T04:11:36;100338.72;;;7.82;100.00
25722;BME280;13578;53.450;15.496;2023-04-21T04:14:37;100330.75;;;7.91;100.00
25722;BME280;13578;53.450;15.496;2023-04-21T04:17:38;100333.81;;;7.87;100.00
25722;BME280;13578;53.450;15.496;2023-04-21T04:20:39;100333.63;;;8.03;100.00
25722;BME280;13578;53.450;15.496;2023-04-21T04:23:40;100331.75;;;8.03;100.00
25722;BME280;13578;53.450;15.496;2023-04-21T04:26:40;100323.09;;;8.09;100.00
25722;BME280;13578;53.450;15.496;2023-04-21T04:29:42;100324.66;;;8.14;100.00
25722;BME280;13578;53.450;15.496;2023-04-21T04:32:43;100333.06;;;8.36;100.00
25722;BME280;13578;53.450;15.496;2023-04-21T04:35:43;100321.75;;;8.41;100.00
25722;BME280;13578;53.450;15.496;2023-04-21T04:38:44;100322.41;;;8.57;100.00
25722;BME280;13578;53.450;15.496;2023-04-21T04:41:45;100304.91;;;8.60;100.00
25722;BME280;13578;53.450;15.496;2023-04-21T04:44:46;100311.88;;;8.77;100.00
25722;BME280;13578;53.450;15.496;2023-04-21T04:47:48;100304.41;;;8.79;100.00
25722;BME280;13578;53.450;15.496;2023-04-21T04:50:49;100318.34;;;9.00;100.00
25722;BME280;13578;53.450;15.496;2023-04-21T04:53:49;100311.31;;;9.09;100.00
25722;BME280;13578;53.450;15.496;2023-04-21T04:56:50;100314.63;;;9.26;100.00
25722;BME280;13578;53.450;15.496;2023-04-21T04:59:54;100306.50;;;9.48;100.00
25722;BME280;13578;53.450;15.496;2023-04-21T05:02:55;100308.25;;;9.49;100.00
25722;BME280;13578;53.450;15.496;2023-04-21T05:05:56;100310.75;;;9.52;100.00
25722;BME280;13578;53.450;15.496;2023-04-21T05:08:56;100308.00;;;9.52;100.00
25722;BME280;13578;53.450;15.496;2023-04-21T05:11:57;100301.66;;;9.52;100.00
25722;BME280;13578;53.450;15.496;2023-04-21T05:14:58;100307.78;;;9.56;100.00
25722;BME280;13578;53.450;15.496;2023-04-21T05:17:58;100317.91;;;9.66;100.00
25722;BME280;13578;53.450;15.496;2023-04-21T05:20:59;100315.94;;;9.80;100.00
25722;BME280;13578;53.450;15.496;2023-04-21T05:24:00;100310.84;;;9.87;100.00
25722;BME280;13578;53.450;15.496;2023-04-21T05:27:00;100317.06;;;9.89;100.00
25722;BME280;13578;53.450;15.496;2023-04-21T05:30:02;100320.44;;;9.92;100.00
25722;BME280;13578;53.450;15.496;2023-04-21T05:33:03;100311.00;;;9.96;100.00
25722;BME280;13578;53.450;15.496;2023-04-21T05:36:10;100305.78;;;10.16;100.00
25722;BME280;13578;53.450;15.496;2023-04-21T05:39:10;100302.91;;;10.17;100.00
25722;BME280;13578;53.450;15.496;2023-04-21T05:42:11;100298.28;;;10.29;100.00
25722;BME280;13578;53.450;15.496;2023-04-21T05:45:12;100320.03;;;10.44;100.00
25722;BME280;13578;53.450;15.496;2023-04-21T05:48:12;100310.56;;;10.48;100.00
25722;BME280;13578;53.450;15.496;2023-04-21T05:51:14;100296.34;;;10.54;100.00
25722;BME280;13578;53.450;15.496;2023-04-21T05:54:15;100294.81;;;10.73;100.00
25722;BME280;13578;53.450;15.496;2023-04-21T05:57:15;100307.28;;;10.77;100.00
25722;BME280;13578;53.450;15.496;2023-04-21T06:00:17;100292.53;;;10.89;100.00
25722;BME280;13578;53.450;15.496;2023-04-21T06:03:17;100295.00;;;11.04;100.00
25722;BME280;13578;53.450;15.496;2023-04-21T06:06:19;100291.72;;;11.10;100.00
25722;BME280;13578;53.450;15.496;2023-04-21T06:09:19;100284.69;;;11.17;100.00
25722;BME280;13578;53.450;15.496;2023-04-21T06:12:20;100292.16;;;11.26;100.00
25722;BME280;13578;53.450;15.496;2023-04-21T06:15:20;100290.38;;;11.37;100.00
25722;BME280;13578;53.450;15.496;2023-04-21T06:18:21;100281.16;;;11.38;99.65
25722;BME280;13578;53.450;15.496;2023-04-21T06:21:23;100279.78;;;11.32;99.07
25722;BME280;13578;53.450;15.496;2023-04-21T06:24:24;100285.09;;;11.45;99.38
25722;BME280;13578;53.450;15.496;2023-04-21T06:27:24;100281.28;;;11.57;98.68
25722;BME280;13578;53.450;15.496;2023-04-21T06:30:25;100283.91;;;11.80;99.75
25722;BME280;13578;53.450;15.496;2023-04-21T06:33:26;100283.06;;;12.01;99.28
25722;BME280;13578;53.450;15.496;2023-04-21T06:36:26;100299.69;;;12.30;100.00
25722;BME280;13578;53.450;15.496;2023-04-21T06:39:28;100264.13;;;12.48;96.18
25722;BME280;13578;53.450;15.496;2023-04-21T06:42:28;100287.06;;;12.59;96.93
25722;BME280;13578;53.450;15.496;2023-04-21T06:45:29;100264.47;;;12.65;96.07
25722;BME280;13578;53.450;15.496;2023-04-21T06:48:30;100261.34;;;12.89;96.86
25722;BME280;13578;53.450;15.496;2023-04-21T06:51:31;100260.38;;;13.10;93.16
25722;BME280;13578;53.450;15.496;2023-04-21T06:54:32;100255.28;;;13.25;91.92
25722;BME280;13578;53.450;15.496;2023-04-21T06:57:32;100252.69;;;13.33;89.35
25722;BME280;13578;53.450;15.496;2023-04-21T07:00:33;100254.47;;;13.44;91.01
25722;BME280;13578;53.450;15.496;2023-04-21T07:03:34;100257.50;;;13.60;89.69
25722;BME280;13578;53.450;15.496;2023-04-21T07:06:34;100255.88;;;13.77;91.22
25722;BME280;13578;53.450;15.496;2023-04-21T07:09:35;100258.72;;;13.95;91.37
25722;BME280;13578;53.450;15.496;2023-04-21T07:12:36;100249.00;;;14.01;88.32
25722;BME280;13578;53.450;15.496;2023-04-21T07:15:37;100256.59;;;14.27;87.35
25722;BME280;13578;53.450;15.496;2023-04-21T07:18:39;100244.25;;;14.31;84.68
25722;BME280;13578;53.450;15.496;2023-04-21T07:21:40;100225.97;;;14.20;81.49
25722;BME280;13578;53.450;15.496;2023-04-21T07:24:40;100248.44;;;14.35;85.30
25722;BME280;13578;53.450;15.496;2023-04-21T07:27:41;100219.13;;;14.52;80.16
25722;BME280;13578;53.450;15.496;2023-04-21T07:30:42;100227.41;;;14.52;80.68
25722;BME280;13578;53.450;15.496;2023-04-21T07:33:43;100207.31;;;14.60;79.07
25722;BME280;13578;53.450;15.496;2023-04-21T07:36:43;100213.41;;;14.64;77.29
25722;BME280;13578;53.450;15.496;2023-04-21T07:39:44;100237.50;;;14.71;82.40
25722;BME280;13578;53.450;15.496;2023-04-21T07:42:45;100223.34;;;15.02;80.12
25722;BME280;13578;53.450;15.496;2023-04-21T07:45:45;100205.47;;;15.51;75.32
25722;BME280;13578;53.450;15.496;2023-04-21T07:48:46;100172.22;;;15.69;69.17
25722;BME280;13578;53.450;15.496;2023-04-21T07:51:47;100176.94;;;15.77;68.51
25722;BME280;13578;53.450;15.496;2023-04-21T07:54:47;100176.75;;;15.96;66.78
25722;BME280;13578;53.450;15.496;2023-04-21T07:57:48;100188.72;;;16.05;68.99
25722;BME280;13578;53.450;15.496;2023-04-21T08:00:49;100173.19;;;16.12;65.49
25722;BME280;13578;53.450;15.496;2023-04-21T08:03:50;100184.34;;;16.29;68.21
25722;BME280;13578;53.450;15.496;2023-04-21T08:06:51;100172.09;;;16.40;67.12
25722;BME280;13578;53.450;15.496;2023-04-21T08:09:52;100138.38;;;16.44;62.10
25722;BME280;13578;53.450;15.496;2023-04-21T08:12:52;100109.38;;;16.14;59.05
25722;BME280;13578;53.450;15.496;2023-04-21T08:15:53;100142.81;;;16.29;61.54
25722;BME280;13578;53.450;15.496;2023-04-21T08:18:54;100143.13;;;16.17;61.23
25722;BME280;13578;53.450;15.496;2023-04-21T08:21:55;100136.66;;;16.51;61.12
25722;BME280;13578;53.450;15.496;2023-04-21T08:24:56;100125.91;;;16.57;59.22
25722;BME280;13578;53.450;15.496;2023-04-21T08:27:57;100115.75;;;16.65;57.72
25722;BME280;13578;53.450;15.496;2023-04-21T08:30:58;100103.81;;;16.81;56.11
25722;BME280;13578;53.450;15.496;2023-04-21T08:34:01;100098.06;;;16.58;55.53
25722;BME280;13578;53.450;15.496;2023-04-21T08:37:01;100132.56;;;16.89;56.75
25722;BME280;13578;53.450;15.496;2023-04-21T08:40:04;100110.69;;;16.52;55.40
25722;BME280;13578;53.450;15.496;2023-04-21T08:43:05;100087.47;;;16.45;52.84
25722;BME280;13578;53.450;15.496;2023-04-21T08:46:07;100091.47;;;16.51;53.00
25722;BME280;13578;53.450;15.496;2023-04-21T08:49:18;100059.94;;;16.35;51.07
25722;BME280;13578;53.450;15.496;2023-04-21T08:52:19;100081.94;;;16.45;50.85
25722;BME280;13578;53.450;15.496;2023-04-21T08:55:30;100068.91;;;16.38;49.70
25722;BME280;13578;53.450;15.496;2023-04-21T08:58:31;100057.50;;;16.41;48.77
25722;BME280;13578;53.450;15.496;2023-04-21T09:01:32;100056.13;;;16.45;47.51
25722;BME280;13578;53.450;15.496;2023-04-21T09:04:33;100059.28;;;16.50;47.64
25722;BME280;13578;53.450;15.496;2023-04-21T09:07:36;100077.78;;;16.49;48.24
25722;BME280;13578;53.450;15.496;2023-04-21T09:10:50;100051.13;;;16.57;45.48
25722;BME280;13578;53.450;15.496;2023-04-21T09:13:55;100049.22;;;16.82;44.92
25722;BME280;13578;53.450;15.496;2023-04-21T09:17:02;100027.59;;;16.69;43.06
25722;BME280;13578;53.450;15.496;2023-04-21T09:20:18;100068.81;;;16.80;46.43
25722;BME280;13578;53.450;15.496;2023-04-21T09:23:20;100062.06;;;16.83;45.94
25722;BME280;13578;53.450;15.496;2023-04-21T09:26:21;100033.66;;;16.73;44.78
25722;BME280;13578;53.450;15.496;2023-04-21T09:29:25;100064.69;;;17.09;45.84
25722;BME280;13578;53.450;15.496;2023-04-21T09:32:26;100056.34;;;17.34;45.76
25722;BME280;13578;53.450;15.496;2023-04-21T09:35:27;100053.66;;;17.57;45.23
25722;BME280;13578;53.450;15.496;2023-04-21T09:38:28;100044.97;;;17.69;45.05
25722;BME280;13578;53.450;15.496;2023-04-21T09:41:30;100054.50;;;17.66;44.78
25722;BME280;13578;53.450;15.496;2023-04-21T09:44:31;100017.31;;;17.44;42.31
25722;BME280;13578;53.450;15.496;2023-04-21T09:47:36;100032.94;;;17.28;44.21
25722;BME280;13578;53.450;15.496;2023-04-21T09:50:39;100030.88;;;17.30;44.19
25722;BME280;13578;53.450;15.496;2023-04-21T09:53:41;100045.56;;;17.39;44.99
25722;BME280;13578;53.450;15.496;2023-04-21T09:56:42;100039.72;;;17.18;44.69
25722;BME280;13578;53.450;15.496;2023-04-21T09:59:44;100013.50;;;17.37;43.04
25722;BME280;13578;53.450;15.496;2023-04-21T10:02:50;100028.06;;;17.39;43.65
25722;BME280;13578;53.450;15.496;2023-04-21T10:05:52;100054.19;;;17.61;46.65
25722;BME280;13578;53.450;15.496;2023-04-21T10:08:54;100017.50;;;17.82;43.72
25722;BME280;13578;53.450;15.496;2023-04-21T10:11:57;100051.13;;;17.96;46.84
25722;BME280;13578;53.450;15.496;2023-04-21T10:14:58;100027.03;;;17.40;44.99
25722;BME280;13578;53.450;15.496;2023-04-21T10:18:15;100033.44;;;17.40;44.17
25722;BME280;13578;53.450;15.496;2023-04-21T10:21:17;100040.72;;;17.33;46.12
25722;BME280;13578;53.450;15.496;2023-04-21T10:24:21;100026.47;;;17.44;45.03
25722;BME280;13578;53.450;15.496;2023-04-21T10:27:38;100033.19;;;17.58;45.89
25722;BME280;13578;53.450;15.496;2023-04-21T10:30:39;100047.69;;;17.77;47.46
25722;BME280;13578;53.450;15.496;2023-04-21T10:33:39;100030.97;;;17.93;46.22
25722;BME280;13578;53.450;15.496;2023-04-21T10:39:58;100036.25;;;18.20;47.22
25722;BME280;13578;53.450;15.496;2023-04-21T10:43:01;100031.44;;;18.14;46.09
25722;BME280;13578;53.450;15.496;2023-04-21T10:46:31;100008.69;;;17.78;44.74
25722;BME280;13578;53.450;15.496;2023-04-21T10:49:37;100014.63;;;18.07;47.63
25722;BME280;13578;53.450;15.496;2023-04-21T10:52:38;100039.25;;;18.41;48.62
25722;BME280;13578;53.450;15.496;2023-04-21T10:55:47;99973.44;;;18.42;43.00
25722;BME280;13578;53.450;15.496;2023-04-21T10:58:48;99985.47;;;18.34;43.71
25722;BME280;13578;53.450;15.496;2023-04-21T11:01:49;99975.88;;;18.14;42.53
25722;BME280;13578;53.450;15.496;2023-04-21T11:04:51;99973.03;;;17.99;42.92
25722;BME280;13578;53.450;15.496;2023-04-21T11:08:01;99993.91;;;18.18;44.85
25722;BME280;13578;53.450;15.496;2023-04-21T11:11:02;99963.63;;;18.31;42.81
25722;BME280;13578;53.450;15.496;2023-04-21T11:14:02;99968.78;;;18.11;43.71
25722;BME280;13578;53.450;15.496;2023-04-21T11:17:04;99973.91;;;18.22;44.72
25722;BME280;13578;53.450;15.496;2023-04-21T11:20:09;99962.00;;;18.14;43.77
25722;BME280;13578;53.450;15.496;2023-04-21T11:23:16;99950.84;;;17.99;42.99
25722;BME280;13578;53.450;15.496;2023-04-21T11:26:17;99973.53;;;18.02;44.18
25722;BME280;13578;53.450;15.496;2023-04-21T11:29:19;99980.09;;;18.09;44.41
25722;BME280;13578;53.450;15.496;2023-04-21T11:32:20;99964.78;;;18.14;44.47
25722;BME280;13578;53.450;15.496;2023-04-21T11:35:20;99984.22;;;18.37;45.72
25722;BME280;13578;53.450;15.496;2023-04-21T11:38:23;99975.03;;;18.60;45.38
25722;BME280;13578;53.450;15.496;2023-04-21T11:41:24;99967.72;;;18.82;44.06
25722;BME280;13578;53.450;15.496;2023-04-21T11:44:40;99962.91;;;18.76;44.00
25722;BME280;13578;53.450;15.496;2023-04-21T11:47:43;99952.44;;;18.78;43.44
25722;BME280;13578;53.450;15.496;2023-04-21T11:50:49;99942.31;;;18.85;43.00
25722;BME280;13578;53.450;15.496;2023-04-21T11:53:50;99962.25;;;18.88;45.13
25722;BME280;13578;53.450;15.496;2023-04-21T11:56:53;99913.13;;;18.66;41.23
25722;BME280;13578;53.450;15.496;2023-04-21T11:59:57;99921.44;;;18.51;41.77
25722;BME280;13578;53.450;15.496;2023-04-21T12:02:57;99922.28;;;18.51;42.41
25722;BME280;13578;53.450;15.496;2023-04-21T12:05:58;99914.41;;;18.40;42.12
25722;BME280;13578;53.450;15.496;2023-04-21T12:09:00;99911.16;;;18.51;42.45
25722;BME280;13578;53.450;15.496;2023-04-21T12:12:02;99900.50;;;18.78;41.50
25722;BME280;13578;53.450;15.496;2023-04-21T12:15:09;99892.75;;;18.73;40.31
25722;BME280;13578;53.450;15.496;2023-04-21T12:18:13;99920.72;;;18.72;42.32
25722;BME280;13578;53.450;15.496;2023-04-21T12:21:15;99918.66;;;18.51;42.71
25722;BME280;13578;53.450;15.496;2023-04-21T12:24:16;99900.44;;;18.48;41.15
25722;BME280;13578;53.450;15.496;2023-04-21T12:27:16;99916.00;;;18.34;43.41
25722;BME280;13578;53.450;15.496;2023-04-21T12:30:19;99920.25;;;18.45;44.15
25722;BME280;13578;53.450;15.496;2023-04-21T12:33:20;99908.09;;;18.84;42.08
25722;BME280;13578;53.450;15.496;2023-04-21T12:36:20;99887.59;;;18.85;41.08
25722;BME280;13578;53.450;15.496;2023-04-21T12:39:21;99925.25;;;18.88;44.28
25722;BME280;13578;53.450;15.496;2023-04-21T12:42:22;99865.72;;;18.82;39.91
25722;BME280;13578;53.450;15.496;2023-04-21T12:45:22;99865.50;;;18.54;40.47
25722;BME280;13578;53.450;15.496;2023-04-21T12:48:23;99849.69;;;18.54;39.29
25722;BME280;13578;53.450;15.496;2023-04-21T12:51:24;99831.44;;;18.37;38.11
25722;BME280;13578;53.450;15.496;2023-04-21T12:54:25;99879.88;;;18.72;41.21
25722;BME280;13578;53.450;15.496;2023-04-21T12:57:26;99843.75;;;18.87;38.96
25722;BME280;13578;53.450;15.496;2023-04-21T13:00:28;99850.56;;;18.70;39.21
25722;BME280;13578;53.450;15.496;2023-04-21T13:03:28;99832.81;;;18.56;38.89
25722;BME280;13578;53.450;15.496;2023-04-21T13:06:29;99867.88;;;18.57;40.18
25722;BME280;13578;53.450;15.496;2023-04-21T13:09:30;99880.44;;;18.68;42.06
25722;BME280;13578;53.450;15.496;2023-04-21T13:12:31;99841.34;;;18.69;39.66
25722;BME280;13578;53.450;15.496;2023-04-21T13:15:32;99844.16;;;18.84;40.13
25722;BME280;13578;53.450;15.496;2023-04-21T13:18:33;99832.41;;;18.44;39.47
25722;BME280;13578;53.450;15.496;2023-04-21T13:21:35;99819.06;;;18.39;39.56
25722;BME280;13578;53.450;15.496;2023-04-21T13:24:35;99819.78;;;18.56;39.08
25722;BME280;13578;53.450;15.496;2023-04-21T13:27:36;99803.88;;;18.50;38.44
25722;BME280;13578;53.450;15.496;2023-04-21T13:30:39;99810.50;;;18.64;38.65
25722;BME280;13578;53.450;15.496;2023-04-21T13:33:40;99797.84;;;18.77;38.53
25722;BME280;13578;53.450;15.496;2023-04-21T13:36:41;99805.53;;;18.75;39.43
25722;BME280;13578;53.450;15.496;2023-04-21T13:39:41;99805.53;;;19.04;39.27
25722;BME280;13578;53.450;15.496;2023-04-21T13:42:42;99792.22;;;19.00;38.53
25722;BME280;13578;53.450;15.496;2023-04-21T13:45:43;99792.75;;;18.80;38.22
25722;BME280;13578;53.450;15.496;2023-04-21T13:48:45;99754.59;;;18.74;36.47
25722;BME280;13578;53.450;15.496;2023-04-21T13:51:46;99797.84;;;18.77;38.70
25722;BME280;13578;53.450;15.496;2023-04-21T13:54:46;99788.66;;;18.76;38.40
25722;BME280;13578;53.450;15.496;2023-04-21T13:57:47;99793.53;;;18.74;39.41
25722;BME280;13578;53.450;15.496;2023-04-21T14:00:48;99784.44;;;18.65;38.60
25722;BME280;13578;53.450;15.496;2023-04-21T14:03:49;99771.09;;;18.61;39.04
25722;BME280;13578;53.450;15.496;2023-04-21T14:06:49;99768.59;;;18.66;39.03
25722;BME280;13578;53.450;15.496;2023-04-21T14:09:50;99770.31;;;18.67;39.31
25722;BME280;13578;53.450;15.496;2023-04-21T14:12:51;99765.94;;;18.72;39.46
25722;BME280;13578;53.450;15.496;2023-04-21T14:15:51;99772.66;;;18.78;39.73
25722;BME280;13578;53.450;15.496;2023-04-21T14:18:52;99771.59;;;18.64;39.29
25722;BME280;13578;53.450;15.496;2023-04-21T14:21:53;99773.69;;;18.62;40.06
25722;BME280;13578;53.450;15.496;2023-04-21T14:24:53;99791.72;;;18.66;40.81
25722;BME280;13578;53.450;15.496;2023-04-21T14:27:54;99773.59;;;18.70;40.75
25722;BME280;13578;53.450;15.496;2023-04-21T14:30:55;99755.66;;;18.73;39.60
25722;BME280;13578;53.450;15.496;2023-04-21T14:33:55;99775.44;;;18.78;40.74
25722;BME280;13578;53.450;15.496;2023-04-21T14:36:56;99761.44;;;18.86;40.48
25722;BME280;13578;53.450;15.496;2023-04-21T14:39:59;99789.78;;;18.82;42.58
25722;BME280;13578;53.450;15.496;2023-04-21T14:43:00;99780.00;;;18.86;42.65
25722;BME280;13578;53.450;15.496;2023-04-21T14:46:02;99750.41;;;18.78;40.80
25722;BME280;13578;53.450;15.496;2023-04-21T14:49:03;99726.75;;;18.67;39.77
25722;BME280;13578;53.450;15.496;2023-04-21T14:52:03;99751.19;;;18.72;41.40
25722;BME280;13578;53.450;15.496;2023-04-21T14:55:05;99736.81;;;18.68;40.11
25722;BME280;13578;53.450;15.496;2023-04-21T14:58:05;99742.94;;;18.64;41.36
25722;BME280;13578;53.450;15.496;2023-04-21T15:01:06;99732.78;;;18.71;40.64
25722;BME280;13578;53.450;15.496;2023-04-21T15:04:07;99715.16;;;18.64;40.10
25722;BME280;13578;53.450;15.496;2023-04-21T15:07:08;99720.34;;;18.52;40.13
25722;BME280;13578;53.450;15.496;2023-04-21T15:10:08;99701.56;;;18.39;39.58
25722;BME280;13578;53.450;15.496;2023-04-21T15:13:10;99721.69;;;18.41;41.04
25722;BME280;13578;53.450;15.496;2023-04-21T15:16:11;99708.06;;;18.46;40.21
25722;BME280;13578;53.450;15.496;2023-04-21T15:19:12;99699.06;;;18.29;40.06
25722;BME280;13578;53.450;15.496;2023-04-21T15:22:13;99719.75;;;18.56;40.61
25722;BME280;13578;53.450;15.496;2023-04-21T15:25:14;99713.13;;;18.42;40.73
25722;BME280;13578;53.450;15.496;2023-04-21T15:28:15;99708.72;;;18.33;40.50
25722;BME280;13578;53.450;15.496;2023-04-21T15:31:16;99715.34;;;18.47;41.27
25722;BME280;13578;53.450;15.496;2023-04-21T15:34:16;99696.94;;;18.46;40.50
25722;BME280;13578;53.450;15.496;2023-04-21T15:37:17;99710.53;;;18.56;40.68
25722;BME280;13578;53.450;15.496;2023-04-21T15:40:19;99697.25;;;18.36;40.65
25722;BME280;13578;53.450;15.496;2023-04-21T15:43:19;99713.72;;;18.38;40.85